sensor_id;sensor_type;location;lat;lon;timestamp;P1;durP1;ratioP1;P2;durP2;ratioP2
14048;SDS011;7099;53.922;10.728;2023-12-07T08:21:22;160.50;;;37.27;;
14048;SDS011;7099;53.922;10.728;2023-12-07T08:25:34;177.63;;;38.93;;
14048;SDS011;7099;53.922;10.728;2023-12-07T08:29:40;150.67;;;35.47;;
14048;SDS011;7099;53.922;10.728;2023-12-07T08:33:46;159.60;;;37.13;;
14048;SDS011;7099;53.922;10.728;2023-12-07T08:37:52;160.70;;;37.33;;
14048;SDS011;7099;53.922;10.728;2023-12-07T08:41:57;148.80;;;35.47;;
14048;SDS011;7099;53.922;10.728;2023-12-07T08:46:03;139.10;;;35.00;;
14048;SDS011;7099;53.922;10.728;2023-12-07T08:50:12;158.07;;;37.33;;
14048;SDS011;7099;53.922;10.728;2023-12-07T08:54:17;143.20;;;34.20;;
14048;SDS011;7099;53.922;10.728;2023-12-07T08:58:23;157.27;;;34.73;;
14048;SDS011;7099;53.922;10.728;2023-12-07T09:02:29;131.17;;;32.10;;
14048;SDS011;7099;53.922;10.728;2023-12-07T09:06:50;126.40;;;32.40;;
14048;SDS011;7099;53.922;10.728;2023-12-07T09:10:55;138.30;;;36.33;;
14048;SDS011;7099;53.922;10.728;2023-12-07T09:15:04;142.13;;;35.60;;
14048;SDS011;7099;53.922;10.728;2023-12-07T09:19:13;131.47;;;33.07;;
14048;SDS011;7099;53.922;10.728;2023-12-07T09:23:18;164.90;;;35.33;;
14048;SDS011;7099;53.922;10.728;2023-12-07T09:27:24;141.37;;;32.47;;
14048;SDS011;7099;53.922;10.728;2023-12-07T09:31:31;116.50;;;34.60;;
14048;SDS011;7099;53.922;10.728;2023-12-07T09:35:36;137.20;;;36.07;;
14048;SDS011;7099;53.922;10.728;2023-12-07T09:39:43;142.97;;;33.63;;
14048;SDS011;7099;53.922;10.728;2023-12-07T09:43:49;121.93;;;33.40;;
14048;SDS011;7099;53.922;10.728;2023-12-07T09:47:55;121.90;;;31.73;;
14048;SDS011;7099;53.922;10.728;2023-12-07T10:08:32;132.67;;;36.57;;
14048;SDS011;7099;53.922;10.728;2023-12-07T10:12:52;132.20;;;33.30;;
14048;SDS011;7099;53.922;10.728;2023-12-07T10:17:00;123.13;;;35.60;;
14048;SDS011;7099;53.922;10.728;2023-12-07T10:21:09;140.63;;;38.47;;
14048;SDS011;7099;53.922;10.728;2023-12-07T10:25:15;138.15;;;37.85;;
14048;SDS011;7099;53.922;10.728;2023-12-07T10:29:26;128.30;;;36.20;;
14048;SDS011;7099;53.922;10.728;2023-12-07T10:33:37;134.63;;;36.10;;
14048;SDS011;7099;53.922;10.728;2023-12-07T10:37:43;129.23;;;36.60;;
14048;SDS011;7099;53.922;10.728;2023-12-07T10:41:49;132.57;;;37.90;;
14048;SDS011;7099;53.922;10.728;2023-12-07T10:46:02;129.83;;;37.50;;
14048;SDS011;7099;53.922;10.728;2023-12-07T10:50:10;113.20;;;34.80;;
14048;SDS011;7099;53.922;10.728;2023-12-07T10:54:20;121.73;;;35.73;;
14048;SDS011;7099;53.922;10.728;2023-12-07T10:58:28;115.60;;;36.37;;
14048;SDS011;7099;53.922;10.728;2023-12-07T11:02:34;107.77;;;34.67;;
14048;SDS011;7099;53.922;10.728;2023-12-07T11:06:42;116.60;;;34.63;;
14048;SDS011;7099;53.922;10.728;2023-12-07T11:15:25;117.43;;;34.83;;
14048;SDS011;7099;53.922;10.728;2023-12-07T11:23:39;106.70;;;35.27;;
14048;SDS011;7099;53.922;10.728;2023-12-07T11:27:45;117.73;;;36.10;;
14048;SDS011;7099;53.922;10.728;2023-12-07T11:31:56;105.33;;;35.20;;
14048;SDS011;7099;53.922;10.728;2023-12-07T11:36:06;105.23;;;34.20;;
14048;SDS011;7099;53.922;10.728;2023-12-07T11:40:17;111.13;;;34.43;;
14048;SDS011;7099;53.922;10.728;2023-12-07T11:44:35;126.90;;;36.13;;
14048;SDS011;7099;53.922;10.728;2023-12-07T11:48:47;109.17;;;34.17;;
14048;SDS011;7099;53.922;10.728;2023-12-07T11:52:54;109.87;;;34.27;;
14048;SDS011;7099;53.922;10.728;2023-12-07T11:56:59;104.63;;;34.50;;
14048;SDS011;7099;53.922;10.728;2023-12-07T12:01:05;106.13;;;35.50;;
14048;SDS011;7099;53.922;10.728;2023-12-07T12:05:13;108.03;;;35.07;;
14048;SDS011;7099;53.922;10.728;2023-12-07T12:09:19;115.70;;;37.77;;
14048;SDS011;7099;53.922;10.728;2023-12-07T12:13:37;112.07;;;37.50;;
14048;SDS011;7099;53.922;10.728;2023-12-07T12:17:43;128.87;;;38.30;;
14048;SDS011;7099;53.922;10.728;2023-12-07T12:21:49;113.93;;;38.70;;
14048;SDS011;7099;53.922;10.728;2023-12-07T12:25:55;104.67;;;34.30;;
14048;SDS011;7099;53.922;10.728;2023-12-07T12:30:02;91.73;;;33.23;;
14048;SDS011;7099;53.922;10.728;2023-12-07T12:34:08;96.50;;;33.17;;
14048;SDS011;7099;53.922;10.728;2023-12-07T12:38:18;87.73;;;32.00;;
14048;SDS011;7099;53.922;10.728;2023-12-07T12:42:38;102.70;;;34.40;;
14048;SDS011;7099;53.922;10.728;2023-12-07T12:46:44;103.17;;;33.37;;
14048;SDS011;7099;53.922;10.728;2023-12-07T12:50:50;101.97;;;33.40;;
14048;SDS011;7099;53.922;10.728;2023-12-07T12:54:56;85.47;;;32.27;;
14048;SDS011;7099;53.922;10.728;2023-12-07T12:59:02;100.00;;;31.90;;
14048;SDS011;7099;53.922;10.728;2023-12-07T13:03:10;100.63;;;33.33;;
14048;SDS011;7099;53.922;10.728;2023-12-07T13:07:18;93.13;;;32.07;;
14048;SDS011;7099;53.922;10.728;2023-12-07T13:11:24;93.77;;;33.50;;
14048;SDS011;7099;53.922;10.728;2023-12-07T13:15:30;95.80;;;31.90;;
14048;SDS011;7099;53.922;10.728;2023-12-07T13:19:36;115.03;;;35.10;;
14048;SDS011;7099;53.922;10.728;2023-12-07T13:23:41;90.37;;;31.80;;
14048;SDS011;7099;53.922;10.728;2023-12-07T13:27:49;101.57;;;32.40;;
14048;SDS011;7099;53.922;10.728;2023-12-07T13:31:55;86.60;;;31.90;;
14048;SDS011;7099;53.922;10.728;2023-12-07T13:36:00;116.53;;;35.10;;
14048;SDS011;7099;53.922;10.728;2023-12-07T13:40:11;111.27;;;34.47;;
14048;SDS011;7099;53.922;10.728;2023-12-07T13:44:17;104.30;;;31.27;;
14048;SDS011;7099;53.922;10.728;2023-12-07T13:48:31;102.17;;;32.73;;
14048;SDS011;7099;53.922;10.728;2023-12-07T13:52:38;97.57;;;30.20;;
14048;SDS011;7099;53.922;10.728;2023-12-07T13:56:43;92.17;;;30.47;;
14048;SDS011;7099;53.922;10.728;2023-12-07T14:00:49;83.33;;;29.17;;
14048;SDS011;7099;53.922;10.728;2023-12-07T14:04:55;83.03;;;28.23;;
14048;SDS011;7099;53.922;10.728;2023-12-07T14:09:01;60.40;;;23.77;;
14048;SDS011;7099;53.922;10.728;2023-12-07T14:13:08;65.87;;;26.20;;
14048;SDS011;7099;53.922;10.728;2023-12-07T14:17:14;66.27;;;25.27;;
14048;SDS011;7099;53.922;10.728;2023-12-07T14:21:24;72.00;;;23.03;;
14048;SDS011;7099;53.922;10.728;2023-12-07T14:25:40;61.43;;;22.10;;
14048;SDS011;7099;53.922;10.728;2023-12-07T14:29:49;56.43;;;21.77;;
14048;SDS011;7099;53.922;10.728;2023-12-07T14:33:54;58.50;;;21.87;;
14048;SDS011;7099;53.922;10.728;2023-12-07T14:38:01;46.83;;;19.63;;
14048;SDS011;7099;53.922;10.728;2023-12-07T14:42:07;53.90;;;21.30;;
14048;SDS011;7099;53.922;10.728;2023-12-07T14:46:14;46.53;;;21.50;;
14048;SDS011;7099;53.922;10.728;2023-12-07T14:50:20;65.40;;;22.30;;
14048;SDS011;7099;53.922;10.728;2023-12-07T14:54:26;54.10;;;22.10;;
14048;SDS011;7099;53.922;10.728;2023-12-07T14:58:34;55.83;;;20.90;;
14048;SDS011;7099;53.922;10.728;2023-12-07T15:02:44;52.90;;;21.50;;
14048;SDS011;7099;53.922;10.728;2023-12-07T15:06:50;50.50;;;22.57;;
14048;SDS011;7099;53.922;10.728;2023-12-07T15:10:55;53.73;;;23.27;;
14048;SDS011;7099;53.922;10.728;2023-12-07T15:15:01;63.33;;;23.83;;
14048;SDS011;7099;53.922;10.728;2023-12-07T15:19:11;59.10;;;23.10;;
14048;SDS011;7099;53.922;10.728;2023-12-07T15:23:16;51.57;;;21.50;;
14048;SDS011;7099;53.922;10.728;2023-12-07T15:27:22;92.27;;;32.50;;
14048;SDS011;7099;53.922;10.728;2023-12-07T15:31:29;69.03;;;26.97;;
14048;SDS011;7099;53.922;10.728;2023-12-07T15:35:35;63.97;;;23.00;;
14048;SDS011;7099;53.922;10.728;2023-12-07T15:39:41;58.27;;;21.60;;
14048;SDS011;7099;53.922;10.728;2023-12-07T15:43:48;60.87;;;21.47;;
14048;SDS011;7099;53.922;10.728;2023-12-07T15:47:56;52.63;;;19.43;;
14048;SDS011;7099;53.922;10.728;2023-12-07T15:52:02;55.00;;;21.33;;
14048;SDS011;7099;53.922;10.728;2023-12-07T15:56:09;50.87;;;18.90;;
14048;SDS011;7099;53.922;10.728;2023-12-07T16:00:15;55.73;;;20.87;;
14048;SDS011;7099;53.922;10.728;2023-12-07T16:04:21;52.83;;;20.43;;
14048;SDS011;7099;53.922;10.728;2023-12-07T16:08:38;53.83;;;19.93;;
14048;SDS011;7099;53.922;10.728;2023-12-07T16:12:43;54.63;;;22.50;;
14048;SDS011;7099;53.922;10.728;2023-12-07T16:16:49;64.47;;;22.90;;
14048;SDS011;7099;53.922;10.728;2023-12-07T16:20:55;54.33;;;20.43;;
14048;SDS011;7099;53.922;10.728;2023-12-07T16:25:01;54.90;;;21.73;;
14048;SDS011;7099;53.922;10.728;2023-12-07T16:29:07;52.13;;;19.70;;
14048;SDS011;7099;53.922;10.728;2023-12-07T16:33:13;54.10;;;20.67;;
14048;SDS011;7099;53.922;10.728;2023-12-07T16:37:19;70.20;;;24.63;;
14048;SDS011;7099;53.922;10.728;2023-12-07T16:41:24;71.67;;;24.70;;
14048;SDS011;7099;53.922;10.728;2023-12-07T16:45:30;61.87;;;22.37;;
14048;SDS011;7099;53.922;10.728;2023-12-07T16:49:38;73.37;;;24.73;;
14048;SDS011;7099;53.922;10.728;2023-12-07T16:53:44;67.33;;;22.63;;
14048;SDS011;7099;53.922;10.728;2023-12-07T16:57:49;66.63;;;22.93;;
14048;SDS011;7099;53.922;10.728;2023-12-07T17:01:55;72.13;;;24.30;;
14048;SDS011;7099;53.922;10.728;2023-12-07T17:06:00;70.70;;;25.00;;
14048;SDS011;7099;53.922;10.728;2023-12-07T17:10:08;68.13;;;22.27;;
14048;SDS011;7099;53.922;10.728;2023-12-07T17:14:14;79.83;;;23.43;;
14048;SDS011;7099;53.922;10.728;2023-12-07T17:18:19;67.90;;;24.60;;
14048;SDS011;7099;53.922;10.728;2023-12-07T17:22:25;81.30;;;22.40;;
14048;SDS011;7099;53.922;10.728;2023-12-07T17:26:31;69.30;;;21.23;;
14048;SDS011;7099;53.922;10.728;2023-12-07T17:30:45;76.20;;;23.93;;
14048;SDS011;7099;53.922;10.728;2023-12-07T17:34:51;70.47;;;21.83;;
14048;SDS011;7099;53.922;10.728;2023-12-07T17:38:57;108.20;;;23.50;;
14048;SDS011;7099;53.922;10.728;2023-12-07T17:43:03;77.70;;;21.77;;
14048;SDS011;7099;53.922;10.728;2023-12-07T17:47:09;73.93;;;21.67;;
14048;SDS011;7099;53.922;10.728;2023-12-07T17:51:15;61.33;;;20.90;;
14048;SDS011;7099;53.922;10.728;2023-12-07T17:55:20;49.40;;;19.33;;
14048;SDS011;7099;53.922;10.728;2023-12-07T17:59:26;78.30;;;17.30;;
14048;SDS011;7099;53.922;10.728;2023-12-07T18:03:31;64.27;;;16.23;;
14048;SDS011;7099;53.922;10.728;2023-12-07T18:07:37;46.90;;;16.40;;
14048;SDS011;7099;53.922;10.728;2023-12-07T18:11:43;53.43;;;16.37;;
14048;SDS011;7099;53.922;10.728;2023-12-07T18:15:49;88.37;;;18.23;;
14048;SDS011;7099;53.922;10.728;2023-12-07T18:19:55;48.27;;;16.97;;
14048;SDS011;7099;53.922;10.728;2023-12-07T18:24:00;84.57;;;19.50;;
14048;SDS011;7099;53.922;10.728;2023-12-07T18:28:06;70.43;;;17.57;;
14048;SDS011;7099;53.922;10.728;2023-12-07T18:32:11;54.97;;;18.17;;
14048;SDS011;7099;53.922;10.728;2023-12-07T18:36:19;76.73;;;29.03;;
14048;SDS011;7099;53.922;10.728;2023-12-07T18:40:25;65.47;;;19.30;;
14048;SDS011;7099;53.922;10.728;2023-12-07T18:44:33;52.57;;;17.53;;
14048;SDS011;7099;53.922;10.728;2023-12-07T18:48:39;55.70;;;18.67;;
14048;SDS011;7099;53.922;10.728;2023-12-07T18:52:45;70.00;;;20.07;;
14048;SDS011;7099;53.922;10.728;2023-12-07T18:56:50;60.60;;;16.97;;
14048;SDS011;7099;53.922;10.728;2023-12-07T19:00:56;65.73;;;18.43;;
14048;SDS011;7099;53.922;10.728;2023-12-07T19:05:02;82.83;;;21.33;;
14048;SDS011;7099;53.922;10.728;2023-12-07T19:09:08;62.03;;;21.30;;
14048;SDS011;7099;53.922;10.728;2023-12-07T19:13:14;45.53;;;15.43;;
14048;SDS011;7099;53.922;10.728;2023-12-07T19:17:20;54.37;;;14.30;;
14048;SDS011;7099;53.922;10.728;2023-12-07T19:21:26;33.57;;;12.47;;
14048;SDS011;7099;53.922;10.728;2023-12-07T19:25:31;23.80;;;10.10;;
14048;SDS011;7099;53.922;10.728;2023-12-07T19:29:38;30.37;;;11.97;;
14048;SDS011;7099;53.922;10.728;2023-12-07T19:33:44;34.33;;;10.80;;
14048;SDS011;7099;53.922;10.728;2023-12-07T19:37:49;26.60;;;10.70;;
14048;SDS011;7099;53.922;10.728;2023-12-07T19:41:55;19.63;;;9.27;;
14048;SDS011;7099;53.922;10.728;2023-12-07T19:46:01;16.97;;;7.60;;
14048;SDS011;7099;53.922;10.728;2023-12-07T19:50:06;20.53;;;9.53;;
14048;SDS011;7099;53.922;10.728;2023-12-07T19:54:12;31.43;;;9.30;;
14048;SDS011;7099;53.922;10.728;2023-12-07T19:58:20;30.53;;;11.40;;
14048;SDS011;7099;53.922;10.728;2023-12-07T20:02:25;22.87;;;9.67;;
14048;SDS011;7099;53.922;10.728;2023-12-07T20:06:31;29.60;;;10.47;;
14048;SDS011;7099;53.922;10.728;2023-12-07T20:10:43;25.17;;;10.30;;
14048;SDS011;7099;53.922;10.728;2023-12-07T20:14:48;51.60;;;12.40;;
14048;SDS011;7099;53.922;10.728;2023-12-07T20:18:54;53.20;;;10.33;;
14048;SDS011;7099;53.922;10.728;2023-12-07T20:23:00;24.97;;;10.00;;
14048;SDS011;7099;53.922;10.728;2023-12-07T20:27:06;22.50;;;9.80;;
14048;SDS011;7099;53.922;10.728;2023-12-07T20:31:12;23.73;;;9.47;;
14048;SDS011;7099;53.922;10.728;2023-12-07T20:35:19;35.00;;;10.10;;
14048;SDS011;7099;53.922;10.728;2023-12-07T20:39:25;31.93;;;10.23;;
14048;SDS011;7099;53.922;10.728;2023-12-07T20:43:31;22.63;;;9.33;;
14048;SDS011;7099;53.922;10.728;2023-12-07T20:47:36;23.63;;;11.27;;
14048;SDS011;7099;53.922;10.728;2023-12-07T20:51:42;33.20;;;10.60;;
14048;SDS011;7099;53.922;10.728;2023-12-07T20:55:47;19.67;;;8.70;;
14048;SDS011;7099;53.922;10.728;2023-12-07T20:59:53;18.53;;;9.03;;
14048;SDS011;7099;53.922;10.728;2023-12-07T21:03:59;20.93;;;9.73;;
14048;SDS011;7099;53.922;10.728;2023-12-07T21:08:05;24.70;;;9.07;;
14048;SDS011;7099;53.922;10.728;2023-12-07T21:12:11;20.13;;;9.77;;
14048;SDS011;7099;53.922;10.728;2023-12-07T21:16:16;22.10;;;10.23;;
14048;SDS011;7099;53.922;10.728;2023-12-07T21:20:22;25.40;;;9.80;;
14048;SDS011;7099;53.922;10.728;2023-12-07T21:24:27;28.53;;;10.40;;
14048;SDS011;7099;53.922;10.728;2023-12-07T21:28:33;27.33;;;10.87;;
14048;SDS011;7099;53.922;10.728;2023-12-07T21:32:39;29.93;;;10.20;;
14048;SDS011;7099;53.922;10.728;2023-12-07T21:36:46;35.30;;;10.23;;
14048;SDS011;7099;53.922;10.728;2023-12-07T21:40:51;23.47;;;10.67;;
14048;SDS011;7099;53.922;10.728;2023-12-07T21:44:57;29.30;;;11.40;;
14048;SDS011;7099;53.922;10.728;2023-12-07T21:49:03;21.10;;;10.23;;
14048;SDS011;7099;53.922;10.728;2023-12-07T21:53:09;33.00;;;10.70;;
14048;SDS011;7099;53.922;10.728;2023-12-07T21:57:14;21.53;;;10.87;;
14048;SDS011;7099;53.922;10.728;2023-12-07T22:01:20;24.50;;;10.90;;
14048;SDS011;7099;53.922;10.728;2023-12-07T22:05:26;27.37;;;11.00;;
14048;SDS011;7099;53.922;10.728;2023-12-07T22:09:32;29.93;;;11.27;;
14048;SDS011;7099;53.922;10.728;2023-12-07T22:13:37;30.43;;;11.23;;
14048;SDS011;7099;53.922;10.728;2023-12-07T22:17:43;29.20;;;12.07;;
14048;SDS011;7099;53.922;10.728;2023-12-07T22:21:48;35.67;;;12.90;;
14048;SDS011;7099;53.922;10.728;2023-12-07T22:25:54;28.30;;;11.97;;
14048;SDS011;7099;53.922;10.728;2023-12-07T22:30:00;27.13;;;12.33;;
14048;SDS011;7099;53.922;10.728;2023-12-07T22:34:06;25.87;;;11.87;;
14048;SDS011;7099;53.922;10.728;2023-12-07T22:38:12;37.07;;;14.03;;
14048;SDS011;7099;53.922;10.728;2023-12-07T22:42:17;33.90;;;13.70;;
14048;SDS011;7099;53.922;10.728;2023-12-07T22:46:23;31.90;;;12.80;;
14048;SDS011;7099;53.922;10.728;2023-12-07T22:50:28;35.90;;;14.97;;
14048;SDS011;7099;53.922;10.728;2023-12-07T22:54:34;39.47;;;14.87;;
14048;SDS011;7099;53.922;10.728;2023-12-07T22:58:40;31.97;;;13.07;;
14048;SDS011;7099;53.922;10.728;2023-12-07T23:02:46;36.20;;;14.20;;
14048;SDS011;7099;53.922;10.728;2023-12-07T23:06:52;38.77;;;15.37;;
14048;SDS011;7099;53.922;10.728;2023-12-07T23:10:58;34.10;;;14.20;;
14048;SDS011;7099;53.922;10.728;2023-12-07T23:15:03;43.93;;;14.47;;
14048;SDS011;7099;53.922;10.728;2023-12-07T23:19:10;31.17;;;14.00;;
14048;SDS011;7099;53.922;10.728;2023-12-07T23:23:16;38.00;;;14.57;;
14048;SDS011;7099;53.922;10.728;2023-12-07T23:27:21;39.53;;;14.93;;
14048;SDS011;7099;53.922;10.728;2023-12-07T23:31:27;29.30;;;13.97;;
14048;SDS011;7099;53.922;10.728;2023-12-07T23:35:34;51.00;;;16.63;;
14048;SDS011;7099;53.922;10.728;2023-12-07T23:39:40;39.50;;;14.33;;
14048;SDS011;7099;53.922;10.728;2023-12-07T23:43:45;28.80;;;12.23;;
14048;SDS011;7099;53.922;10.728;2023-12-07T23:47:51;51.90;;;14.97;;
14048;SDS011;7099;53.922;10.728;2023-12-07T23:51:57;37.33;;;13.53;;
14048;SDS011;7099;53.922;10.728;2023-12-07T23:56:02;33.43;;;13.30;;
